Time;durP1;ratioP1;P1;durP2;ratioP2;P2;SDS_P1;SDS_P2;PMS_P1;PMS_P2;Temp;Humidity;BMP_temperature;BMP_pressure;BME280_temperature;BME280_humidity;BME280_pressure;Samples;Min_cycle;Max_cycle;Signal;HPM_P1;HPM_P2
2022/11/18 00:01:29;;;;;;;;;;;;;;;;;;5029252;28;19976;-69
2022/11/18 00:03:55;;;;;;;;;;;;;;;;;;5028459;28;19924;-70
2022/11/18 00:06:21;;;;;;;;;;;;;;;;;;5025669;28;19975;-70
2022/11/18 00:08:47;;;;;;;;;;;;;;;;;;5027089;28;19947;-71
2022/11/18 00:14:17;;;;;;;;;;;;;;;;;;5027305;28;20373;-70
2022/11/18 00:14:17;;;;;;;;;;;;;;;;;;5011886;28;20011;-70
2022/11/18 00:16:43;;;;;;;;;;;;;;;;;;5016333;28;19947;-70
2022/11/18 00:19:12;;;;;;;;;;;;;;;;;;5024263;28;19979;-71
2022/11/18 00:21:38;;;;;;;;;;;;;;;;;;5024801;28;19936;-71
2022/11/18 00:24:04;;;;;;;;;;;;;;;;;;5021010;28;19921;-69
2022/11/18 00:26:30;;;;;;;;;;;;;;;;;;5025537;28;19974;-69
2022/11/18 00:28:56;;;;;;;;;;;;;;;;;;5033383;28;19952;-70
2022/11/18 00:31:22;;;;;;;;;;;;;;;;;;5023556;28;20011;-70
2022/11/18 00:33:48;;;;;;;;;;;;;;;;;;5008774;28;19921;-70
2022/11/18 00:36:13;;;;;;;;;;;;;;;;;;5009085;28;19921;-70
2022/11/18 00:38:39;;;;;;;;;;;;;;;;;;5017745;28;19932;-70
2022/11/18 00:41:05;;;;;;;;;;;;;;;;;;5023235;28;20641;-70
2022/11/18 00:43:31;;;;;;;;;;;;;;;;;;5007432;28;19924;-69
2022/11/18 00:45:57;;;;;;;;;;;;;;;;;;5026899;28;19922;-71
2022/11/18 00:48:23;;;;;;;;;;;;;;;;;;5031828;28;20362;-70
2022/11/18 00:50:49;;;;;;;;;;;;;;;;;;5033323;28;19976;-71
2022/11/18 00:53:15;;;;;;;;;;;;;;;;;;4995221;28;20328;-71
2022/11/18 00:55:41;;;;;;;;;;;;;;;;;;5026556;28;19921;-71
2022/11/18 00:58:07;;;;;;;;;;;;;;;;;;5025036;28;19927;-70
2022/11/18 01:00:33;;;;;;;;;;;;;;;;;;5027715;28;20019;-70
2022/11/18 01:02:58;;;;;;;;;;;;;;;;;;5028227;28;19921;-71
2022/11/18 01:05:24;;;;;;;;;;;;;;;;;;5032361;28;20360;-70
2022/11/18 01:07:50;;;;;;;;;;;;;;;;;;5024806;28;19956;-70
2022/11/18 01:10:16;;;;;;;;;;;;;;;;;;5025244;28;19925;-70
2022/11/18 01:15:27;;;;;;;;;;;;;;;;;;5027568;28;19928;-70
2022/11/18 01:17:53;;;;;;;;;;;;;;;;;;5027438;28;20016;-71
2022/11/18 01:20:19;;;;;;;;;;;;;;;;;;5033726;28;19925;-71
2022/11/18 01:22:44;;;;;;;;;;;;;;;;;;5024164;28;19967;-70
2022/11/18 01:25:10;;;;;;;;;;;;;;;;;;5019158;28;19974;-70
2022/11/18 01:27:36;;;;;;;;;;;;;;;;;;5025471;28;19921;-71
2022/11/18 01:30:02;;;;;;;;;;;;;;;;;;5026701;28;19983;-70
2022/11/18 01:32:28;;;;;;;;;;;;;;;;;;5027088;28;19928;-69
2022/11/18 01:34:54;;;;;;;;;;;;;;;;;;4994607;28;19921;-70
2022/11/18 01:37:20;;;;;;;;;;;;;;;;;;5015250;28;19976;-69
2022/11/18 01:39:46;;;;;;;;;;;;;;;;;;5029379;28;19924;-69
2022/11/18 01:42:12;;;;;;;;;;;;;;;;;;5023400;28;19983;-69
2022/11/18 01:44:38;;;;;;;;;;;;;;;;;;5024658;28;20003;-70
2022/11/18 01:47:04;;;;;;;;;;;;;;;;;;5022135;28;19929;-70
2022/11/18 01:49:29;;;;;;;;;;;;;;;;;;5026465;28;20377;-71
2022/11/18 01:51:55;;;;;;;;;;;;;;;;;;5025241;28;19921;-71
2022/11/18 01:54:21;;;;;;;;;;;;;;;;;;5023425;28;19921;-70
2022/11/18 01:56:47;;;;;;;;;;;;;;;;;;5056667;23;20293;-82
2022/11/18 01:59:13;;;;;;;;;;;;;;;;;;5041590;28;19917;-82
2022/11/18 02:01:39;;;;;;;;;;;;;;;;;;5042008;28;19927;-84
2022/11/18 02:04:05;;;;;;;;;;;;;;;;;;5043538;28;20349;-81
2022/11/18 02:06:31;;;;;;;;;;;;;;;;;;5042383;28;19921;-81
2022/11/18 02:08:57;;;;;;;;;;;;;;;;;;5043128;28;19925;-82
2022/11/18 02:14:08;;;;;;;;;;;;;;;;;;5043172;28;19964;-81
2022/11/18 02:16:34;;;;;;;;;;;;;;;;;;5050574;28;19928;-81
2022/11/18 02:19:00;;;;;;;;;;;;;;;;;;5040588;28;19928;-81
2022/11/18 02:21:26;;;;;;;;;;;;;;;;;;5040384;28;19943;-82
2022/11/18 02:23:52;;;;;;;;;;;;;;;;;;5036579;28;19921;-81
2022/11/18 02:26:18;;;;;;;;;;;;;;;;;;5046823;28;20031;-80
2022/11/18 02:28:43;;;;;;;;;;;;;;;;;;5049634;28;19921;-81
2022/11/18 02:31:09;;;;;;;;;;;;;;;;;;5051516;28;19925;-83
2022/11/18 02:33:35;;;;;;;;;;;;;;;;;;5046287;28;19931;-80
2022/11/18 02:36:01;;;;;;;;;;;;;;;;;;5042639;28;19999;-81
2022/11/18 02:38:30;;;;;;;;;;;;;;;;;;5040955;28;19921;-80
2022/11/18 02:40:56;;;;;;;;;;;;;;;;;;5046980;28;19975;-82
2022/11/18 02:43:22;;;;;;;;;;;;;;;;;;5051409;28;19944;-80
2022/11/18 02:45:48;;;;;;;;;;;;;;;;;;5035415;28;19947;-82
2022/11/18 02:48:14;;;;;;;;;;;;;;;;;;5020234;28;20260;-82
2022/11/18 02:50:40;;;;;;;;;;;;;;;;;;5027449;28;19928;-81
2022/11/18 02:53:06;;;;;;;;;;;;;;;;;;5045037;28;19917;-81
2022/11/18 02:55:32;;;;;;;;;;;;;;;;;;5045192;28;19991;-80
2022/11/18 02:57:58;;;;;;;;;;;;;;;;;;5043699;28;20441;-81
2022/11/18 03:00:24;;;;;;;;;;;;;;;;;;5044710;28;19928;-82
2022/11/18 03:02:50;;;;;;;;;;;;;;;;;;5045840;28;19921;-82
2022/11/18 03:05:16;;;;;;;;;;;;;;;;;;5046369;28;19972;-79
2022/11/18 03:07:42;;;;;;;;;;;;;;;;;;5044544;28;19927;-81
2022/11/18 03:10:08;;;;;;;;;;;;;;;;;;5039243;28;20336;-82
2022/11/18 03:12:34;;;;;;;;;;;;;;;;;;5038903;28;19972;-81
2022/11/18 03:15:00;;;;;;;;;;;;;;;;;;5039748;28;20007;-82
2022/11/18 03:17:26;;;;;;;;;;;;;;;;;;5034478;28;21849;-80
2022/11/18 03:19:52;;;;;;;;;;;;;;;;;;5021121;28;19988;-79
2022/11/18 03:22:18;;;;;;;;;;;;;;;;;;5040053;28;19952;-82
2022/11/18 03:24:44;;;;;;;;;;;;;;;;;;5039638;28;19968;-80
2022/11/18 03:27:11;;;;;;;;;;;;;;;;;;5040275;28;19967;-81
2022/11/18 03:29:37;;;;;;;;;;;;;;;;;;5037081;28;19960;-81
2022/11/18 03:32:03;;;;;;;;;;;;;;;;;;5039057;28;20290;-82
2022/11/18 03:34:29;;;;;;;;;;;;;;;;;;5055391;28;19928;-82
2022/11/18 03:36:55;;;;;;;;;;;;;;;;;;5043071;28;19967;-81
2022/11/18 03:39:21;;;;;;;;;;;;;;;;;;5022255;28;20059;-81
2022/11/18 03:41:47;;;;;;;;;;;;;;;;;;5041140;28;19921;-81
2022/11/18 03:44:13;;;;;;;;;;;;;;;;;;5040851;28;19921;-83
2022/11/18 03:46:39;;;;;;;;;;;;;;;;;;5040749;28;20008;-82
2022/11/18 03:49:05;;;;;;;;;;;;;;;;;;5041720;28;19961;-80
2022/11/18 03:51:31;;;;;;;;;;;;;;;;;;5022399;28;19921;-81
2022/11/18 03:53:57;;;;;;;;;;;;;;;;;;5036834;28;19921;-81
2022/11/18 03:56:23;;;;;;;;;;;;;;;;;;5034273;28;19953;-81
2022/11/18 03:58:48;;;;;;;;;;;;;;;;;;5040493;28;20020;-82
2022/11/18 04:01:17;;;;;;;;;;;;;;;;;;5040059;28;19921;-82
2022/11/18 04:03:43;;;;;;;;;;;;;;;;;;5026113;28;19932;-82
2022/11/18 04:06:09;;;;;;;;;;;;;;;;;;5043515;28;19948;-82
2022/11/18 04:08:35;;;;;;;;;;;;;;;;;;5020429;28;19935;-81
2022/11/18 04:11:01;;;;;;;;;;;;;;;;;;5034209;28;20430;-81
2022/11/18 04:13:27;;;;;;;;;;;;;;;;;;5036515;28;19979;-81
2022/11/18 04:15:53;;;;;;;;;;;;;;;;;;5025450;28;19928;-82
2022/11/18 04:18:19;;;;;;;;;;;;;;;;;;5049065;28;19944;-80
2022/11/18 04:20:45;;;;;;;;;;;;;;;;;;5050354;28;19931;-82
2022/11/18 04:23:11;;;;;;;;;;;;;;;;;;5051792;28;19921;-82
2022/11/18 04:25:36;;;;;;;;;;;;;;;;;;5044306;28;19921;-83
2022/11/18 04:28:02;;;;;;;;;;;;;;;;;;5035541;28;19929;-81
2022/11/18 04:30:28;;;;;;;;;;;;;;;;;;5047801;28;19929;-82
2022/11/18 04:32:54;;;;;;;;;;;;;;;;;;5055401;28;20450;-84
2022/11/18 04:35:20;;;;;;;;;;;;;;;;;;5048429;28;19921;-82
2022/11/18 04:37:46;;;;;;;;;;;;;;;;;;5047600;28;20008;-82
2022/11/18 04:40:12;;;;;;;;;;;;;;;;;;5042617;28;19921;-82
2022/11/18 04:42:38;;;;;;;;;;;;;;;;;;5045453;28;19935;-81
2022/11/18 04:45:04;;;;;;;;;;;;;;;;;;5053781;28;20354;-81
2022/11/18 04:47:31;;;;;;;;;;;;;;;;;;5051888;28;19980;-80
2022/11/18 04:49:59;;;;;;;;;;;;;;;;;;5051111;28;19989;-81
2022/11/18 04:52:24;;;;;;;;;;;;;;;;;;5043257;28;19921;-80
2022/11/18 04:54:50;;;;;;;;;;;;;;;;;;5042964;28;19975;-81
2022/11/18 04:57:19;;;;;;;;;;;;;;;;;;5038349;28;20306;-82
2022/11/18 04:59:45;;;;;;;;;;;;;;;;;;5043270;28;19921;-82
2022/11/18 05:02:11;;;;;;;;;;;;;;;;;;5026234;28;20012;-80
2022/11/18 05:04:37;;;;;;;;;;;;;;;;;;5041302;28;19999;-81
2022/11/18 05:07:03;;;;;;;;;;;;;;;;;;5038709;28;19975;-81
2022/11/18 05:09:29;;;;;;;;;;;;;;;;;;5036244;28;19921;-82
2022/11/18 05:14:40;;;;;;;;;;;;;;;;;;5049977;28;19929;-82
2022/11/18 05:17:06;;;;;;;;;;;;;;;;;;5055147;28;19976;-82
2022/11/18 05:19:32;;;;;;;;;;;;;;;;;;5053626;28;19921;-81
2022/11/18 05:21:58;;;;;;;;;;;;;;;;;;5053577;28;19921;-80
2022/11/18 05:24:24;;;;;;;;;;;;;;;;;;5045111;28;19921;-82
2022/11/18 05:26:50;;;;;;;;;;;;;;;;;;5046313;28;19921;-82
2022/11/18 05:29:16;;;;;;;;;;;;;;;;;;5045132;28;19921;-81
2022/11/18 05:31:48;;;;;;;;;;;;;;;;;;5033321;28;19932;-82
2022/11/18 05:34:13;;;;;;;;;;;;;;;;;;5046770;28;19921;-81
2022/11/18 05:36:39;;;;;;;;;;;;;;;;;;5052059;28;19992;-80
2022/11/18 05:39:05;;;;;;;;;;;;;;;;;;5050156;28;19925;-82
2022/11/18 05:44:16;;;;;;;;;;;;;;;;;;5045625;28;20007;-81
2022/11/18 05:46:42;;;;;;;;;;;;;;;;;;5045701;28;19921;-81
2022/11/18 05:49:08;;;;;;;;;;;;;;;;;;5044929;28;19925;-81
2022/11/18 05:51:34;;;;;;;;;;;;;;;;;;5039508;28;19917;-82
2022/11/18 05:54:00;;;;;;;;;;;;;;;;;;5039730;28;19925;-81
2022/11/18 05:56:26;;;;;;;;;;;;;;;;;;5041828;28;19921;-82
2022/11/18 05:58:52;;;;;;;;;;;;;;;;;;5023623;28;19921;-82
2022/11/18 06:01:26;;;;;;;;;;;;;;;;;;5043118;28;19979;-82
2022/11/18 06:03:51;;;;;;;;;;;;;;;;;;5030994;28;19967;-81
2022/11/18 06:06:19;;;;;;;;;;;;;;;;;;5041849;28;19921;-83
2022/11/18 06:08:44;;;;;;;;;;;;;;;;;;5041383;28;20339;-80
2022/11/18 06:11:10;;;;;;;;;;;;;;;;;;5018752;28;19988;-81
2022/11/18 06:13:37;;;;;;;;;;;;;;;;;;5022582;28;20059;-79
2022/11/18 06:16:06;;;;;;;;;;;;;;;;;;5056379;28;20282;-82
2022/11/18 06:18:33;;;;;;;;;;;;;;;;;;5042472;28;19968;-80
2022/11/18 06:20:59;;;;;;;;;;;;;;;;;;5038465;28;19971;-81
2022/11/18 06:23:25;;;;;;;;;;;;;;;;;;5041133;28;19921;-81
2022/11/18 06:25:51;;;;;;;;;;;;;;;;;;5038720;28;19943;-79
2022/11/18 06:28:17;;;;;;;;;;;;;;;;;;5041239;28;19984;-80
2022/11/18 06:30:44;;;;;;;;;;;;;;;;;;5037438;28;19968;-80
2022/11/18 06:33:10;;;;;;;;;;;;;;;;;;5042730;28;19920;-80
2022/11/18 06:35:36;;;;;;;;;;;;;;;;;;5034327;28;20026;-80
2022/11/18 06:38:02;;;;;;;;;;;;;;;;;;5039144;28;20373;-80
2022/11/18 06:40:28;;;;;;;;;;;;;;;;;;5040777;28;19952;-80
2022/11/18 06:45:38;;;;;;;;;;;;;;;;;;5033463;28;20008;-80
2022/11/18 06:48:06;;;;;;;;;;;;;;;;;;5039507;28;19979;-80
2022/11/18 06:50:32;;;;;;;;;;;;;;;;;;5038606;28;20302;-81
2022/11/18 06:52:58;;;;;;;;;;;;;;;;;;5040928;28;19924;-79
2022/11/18 06:55:24;;;;;;;;;;;;;;;;;;5047744;28;19905;-80
2022/11/18 06:57:50;;;;;;;;;;;;;;;;;;5044128;28;19935;-80
2022/11/18 07:00:16;;;;;;;;;;;;;;;;;;5045255;28;19971;-80
2022/11/18 07:02:42;;;;;;;;;;;;;;;;;;5048767;28;19943;-80
2022/11/18 07:05:08;;;;;;;;;;;;;;;;;;5040814;28;19921;-80
2022/11/18 07:07:33;;;;;;;;;;;;;;;;;;5039988;28;19932;-81
2022/11/18 07:09:59;;;;;;;;;;;;;;;;;;5036886;28;19921;-80
2022/11/18 07:12:25;;;;;;;;;;;;;;;;;;5032078;28;20382;-80
2022/11/18 07:14:51;;;;;;;;;;;;;;;;;;5025207;28;19921;-80
2022/11/18 07:17:17;;;;;;;;;;;;;;;;;;5023924;28;19921;-79
2022/11/18 07:19:43;;;;;;;;;;;;;;;;;;5037022;28;19925;-80
2022/11/18 07:22:09;;;;;;;;;;;;;;;;;;5026800;28;19921;-82
2022/11/18 07:24:36;;;;;;;;;;;;;;;;;;5057144;28;19991;-79
2022/11/18 07:27:02;;;;;;;;;;;;;;;;;;5034271;28;19921;-80
2022/11/18 07:29:28;;;;;;;;;;;;;;;;;;5045290;28;19925;-81
2022/11/18 07:31:54;;;;;;;;;;;;;;;;;;5041972;28;19912;-79
2022/11/18 07:34:20;;;;;;;;;;;;;;;;;;5047508;28;19973;-79
2022/11/18 07:36:46;;;;;;;;;;;;;;;;;;5042655;28;19982;-81
2022/11/18 07:39:12;;;;;;;;;;;;;;;;;;5051707;28;19932;-80
2022/11/18 07:41:38;;;;;;;;;;;;;;;;;;5038012;28;20401;-80
2022/11/18 07:44:05;;;;;;;;;;;;;;;;;;5031313;28;19955;-80
2022/11/18 07:46:31;;;;;;;;;;;;;;;;;;5031637;28;19924;-79
2022/11/18 07:48:58;;;;;;;;;;;;;;;;;;5041954;28;19982;-80
2022/11/18 07:51:23;;;;;;;;;;;;;;;;;;5048973;28;19924;-79
2022/11/18 07:53:49;;;;;;;;;;;;;;;;;;5046500;28;19921;-81
2022/11/18 07:56:15;;;;;;;;;;;;;;;;;;5040009;28;20391;-80
2022/11/18 07:58:41;;;;;;;;;;;;;;;;;;5047491;28;19921;-79
2022/11/18 08:01:07;;;;;;;;;;;;;;;;;;5047046;28;19928;-79
2022/11/18 08:03:33;;;;;;;;;;;;;;;;;;5044775;28;19920;-79
2022/11/18 08:05:59;;;;;;;;;;;;;;;;;;5033909;28;20012;-79
2022/11/18 08:08:25;;;;;;;;;;;;;;;;;;5035993;28;19984;-79
2022/11/18 08:10:52;;;;;;;;;;;;;;;;;;5041792;28;20003;-80
2022/11/18 08:13:18;;;;;;;;;;;;;;;;;;5040272;28;19917;-81
2022/11/18 08:15:44;;;;;;;;;;;;;;;;;;5041150;28;20655;-80
2022/11/18 08:18:09;;;;;;;;;;;;;;;;;;5042597;28;19975;-82
2022/11/18 08:20:35;;;;;;;;;;;;;;;;;;5038971;28;19921;-81
2022/11/18 08:23:02;;;;;;;;;;;;;;;;;;5046524;28;19921;-80
2022/11/18 08:25:28;;;;;;;;;;;;;;;;;;5048317;28;19921;-80
2022/11/18 08:27:54;;;;;;;;;;;;;;;;;;5041649;28;19921;-81
2022/11/18 08:30:20;;;;;;;;;;;;;;;;;;5043620;28;19928;-80
2022/11/18 08:32:46;;;;;;;;;;;;;;;;;;5040506;28;20290;-81
2022/11/18 08:35:11;;;;;;;;;;;;;;;;;;5042688;28;19925;-81
2022/11/18 08:37:37;;;;;;;;;;;;;;;;;;5042949;28;19924;-81
2022/11/18 08:40:03;;;;;;;;;;;;;;;;;;5045738;28;20382;-81
2022/11/18 08:42:29;;;;;;;;;;;;;;;;;;5053007;28;19912;-80
2022/11/18 08:44:55;;;;;;;;;;;;;;;;;;5038939;28;19928;-80
2022/11/18 08:47:21;;;;;;;;;;;;;;;;;;5024753;28;19927;-80
2022/11/18 08:49:47;;;;;;;;;;;;;;;;;;5039932;28;19984;-80
2022/11/18 08:52:13;;;;;;;;;;;;;;;;;;5044736;28;19925;-81
2022/11/18 08:54:39;;;;;;;;;;;;;;;;;;5043434;28;19925;-81
2022/11/18 08:57:04;;;;;;;;;;;;;;;;;;5034203;28;19928;-81
2022/11/18 08:59:31;;;;;;;;;;;;;;;;;;5042650;28;20273;-81
2022/11/18 09:01:57;;;;;;;;;;;;;;;;;;5043117;28;19943;-81
2022/11/18 09:04:23;;;;;;;;;;;;;;;;;;5022831;28;19925;-80
2022/11/18 09:06:49;;;;;;;;;;;;;;;;;;5043880;28;20512;-83
2022/11/18 09:09:14;;;;;;;;;;;;;;;;;;5047168;28;19921;-82
2022/11/18 09:11:41;;;;;;;;;;;;;;;;;;5044216;28;19929;-80
2022/11/18 09:14:07;;;;;;;;;;;;;;;;;;5041998;28;19978;-82
2022/11/18 09:16:33;;;;;;;;;;;;;;;;;;5039823;28;20308;-84
2022/11/18 09:18:58;;;;;;;;;;;;;;;;;;5040970;28;20513;-81
2022/11/18 09:21:24;;;;;;;;;;;;;;;;;;5037213;28;19951;-83
2022/11/18 09:23:50;;;;;;;;;;;;;;;;;;5039115;28;19943;-82
2022/11/18 09:26:16;;;;;;;;;;;;;;;;;;5043977;28;19986;-82
2022/11/18 09:28:42;;;;;;;;;;;;;;;;;;5064782;28;20451;-84
2022/11/18 09:31:08;;;;;;;;;;;;;;;;;;5044735;28;19931;-82
2022/11/18 09:33:34;;;;;;;;;;;;;;;;;;5049650;28;19928;-83
2022/11/18 09:36:00;;;;;;;;;;;;;;;;;;5030118;28;19928;-82
2022/11/18 09:38:26;;;;;;;;;;;;;;;;;;5052165;28;19921;-82
2022/11/18 09:40:52;;;;;;;;;;;;;;;;;;5055377;28;19985;-82
2022/11/18 09:43:18;;;;;;;;;;;;;;;;;;5049402;28;19984;-80
2022/11/18 09:45:43;;;;;;;;;;;;;;;;;;5050833;28;19967;-82
2022/11/18 09:48:09;;;;;;;;;;;;;;;;;;5049948;28;19925;-82
2022/11/18 09:50:35;;;;;;;;;;;;;;;;;;5039019;28;19928;-82
2022/11/18 09:53:01;;;;;;;;;;;;;;;;;;5051133;28;19921;-81
2022/11/18 09:55:27;;;;;;;;;;;;;;;;;;5048198;28;19922;-81
2022/11/18 09:57:53;;;;;;;;;;;;;;;;;;5050400;28;19983;-82
2022/11/18 10:00:19;;;;;;;;;;;;;;;;;;5047787;28;19957;-81
2022/11/18 10:02:45;;;;;;;;;;;;;;;;;;5047319;28;19921;-83
2022/11/18 10:05:11;;;;;;;;;;;;;;;;;;5035916;28;20417;-82
2022/11/18 10:07:37;;;;;;;;;;;;;;;;;;5041112;28;20014;-80
2022/11/18 10:10:03;;;;;;;;;;;;;;;;;;5041438;28;19936;-81
2022/11/18 10:12:29;;;;;;;;;;;;;;;;;;5045602;28;19925;-82
2022/11/18 10:14:54;;;;;;;;;;;;;;;;;;5038973;28;19921;-81
2022/11/18 10:17:21;;;;;;;;;;;;;;;;;;5061164;28;19921;-81
2022/11/18 10:19:47;;;;;;;;;;;;;;;;;;5037926;28;19925;-81
2022/11/18 10:22:13;;;;;;;;;;;;;;;;;;5046106;28;19921;-81
2022/11/18 10:24:39;;;;;;;;;;;;;;;;;;5046422;28;19925;-81
2022/11/18 10:27:05;;;;;;;;;;;;;;;;;;5052886;28;19920;-79
2022/11/18 10:29:31;;;;;;;;;;;;;;;;;;5055811;28;19920;-80
2022/11/18 10:31:57;;;;;;;;;;;;;;;;;;5054177;28;19929;-81
2022/11/18 10:34:22;;;;;;;;;;;;;;;;;;5051476;28;19928;-81
2022/11/18 10:36:48;;;;;;;;;;;;;;;;;;5052379;28;19936;-81
2022/11/18 10:39:14;;;;;;;;;;;;;;;;;;5052551;28;19929;-81
2022/11/18 10:41:40;;;;;;;;;;;;;;;;;;5056826;28;19960;-80
2022/11/18 10:44:06;;;;;;;;;;;;;;;;;;5049276;28;19928;-78
2022/11/18 10:46:32;;;;;;;;;;;;;;;;;;5046952;28;20345;-82
2022/11/18 10:48:58;;;;;;;;;;;;;;;;;;5049618;28;20367;-82
2022/11/18 10:51:24;;;;;;;;;;;;;;;;;;5045453;28;19921;-80
2022/11/18 10:53:50;;;;;;;;;;;;;;;;;;5030569;28;20404;-81
2022/11/18 10:56:16;;;;;;;;;;;;;;;;;;5049379;28;19928;-82
2022/11/18 10:58:45;;;;;;;;;;;;;;;;;;5045777;28;19920;-83
2022/11/18 11:01:11;;;;;;;;;;;;;;;;;;5051002;28;19921;-80
2022/11/18 11:03:37;;;;;;;;;;;;;;;;;;5054349;28;19921;-82
2022/11/18 11:06:03;;;;;;;;;;;;;;;;;;5050931;28;19921;-80
2022/11/18 11:10:58;;;;;;;;;;;;;;;;;;5058878;28;19939;-82
2022/11/18 11:13:23;;;;;;;;;;;;;;;;;;5070760;28;19960;-82
2022/11/18 11:15:49;;;;;;;;;;;;;;;;;;5055856;28;19920;-82
2022/11/18 11:21:00;;;;;;;;;;;;;;;;;;5048057;28;19925;-81
2022/11/18 11:23:26;;;;;;;;;;;;;;;;;;5036910;28;19917;-82
2022/11/18 11:25:52;;;;;;;;;;;;;;;;;;5052068;28;19982;-81
2022/11/18 11:28:18;;;;;;;;;;;;;;;;;;5049533;28;20067;-82
2022/11/18 11:30:44;;;;;;;;;;;;;;;;;;5053949;28;19905;-82
2022/11/18 11:33:11;;;;;;;;;;;;;;;;;;5055966;28;19929;-84
2022/11/18 11:35:37;;;;;;;;;;;;;;;;;;5054462;28;19921;-84
2022/11/18 11:38:03;;;;;;;;;;;;;;;;;;5053690;28;19921;-83
2022/11/18 11:40:29;;;;;;;;;;;;;;;;;;5035321;28;19925;-83
2022/11/18 11:42:58;;;;;;;;;;;;;;;;;;5050400;28;20008;-87
2022/11/18 11:45:24;;;;;;;;;;;;;;;;;;5048883;28;20173;-85
2022/11/18 11:47:50;;;;;;;;;;;;;;;;;;5043982;28;19918;-86
2022/11/18 11:50:16;;;;;;;;;;;;;;;;;;5046061;28;19983;-85
2022/11/18 11:52:42;;;;;;;;;;;;;;;;;;5041222;28;19925;-84
2022/11/18 11:55:08;;;;;;;;;;;;;;;;;;5062526;28;19928;-85
2022/11/18 11:57:34;;;;;;;;;;;;;;;;;;5078876;28;20010;-85
2022/11/18 12:00:00;;;;;;;;;;;;;;;;;;5036014;28;19959;-85
2022/11/18 12:02:26;;;;;;;;;;;;;;;;;;5050064;28;19927;-84
2022/11/18 12:04:52;;;;;;;;;;;;;;;;;;5050676;28;20019;-85
2022/11/18 12:07:18;;;;;;;;;;;;;;;;;;5067275;28;19921;-85
2022/11/18 12:09:44;;;;;;;;;;;;;;;;;;5038121;28;19928;-83
2022/11/18 12:12:33;;;;;;;;;;;;;;;;;;5054226;28;19921;-85
2022/11/18 12:14:56;;;;;;;;;;;;;;;;;;5051195;28;19921;-82
2022/11/18 12:17:22;;;;;;;;;;;;;;;;;;5038246;28;19927;-84
2022/11/18 12:19:48;;;;;;;;;;;;;;;;;;5048337;28;19921;-85
2022/11/18 12:22:13;;;;;;;;;;;;;;;;;;5065448;28;19928;-83
2022/11/18 12:24:39;;;;;;;;;;;;;;;;;;5029718;28;19921;-83
2022/11/18 12:27:05;;;;;;;;;;;;;;;;;;5063326;28;19928;-85
2022/11/18 12:29:31;;;;;;;;;;;;;;;;;;5040845;28;19920;-82
2022/11/18 12:31:57;;;;;;;;;;;;;;;;;;5044622;28;19921;-85
2022/11/18 12:34:23;;;;;;;;;;;;;;;;;;5044577;28;20016;-82
2022/11/18 12:36:49;;;;;;;;;;;;;;;;;;5025107;28;20367;-84
2022/11/18 12:39:15;;;;;;;;;;;;;;;;;;5032989;28;19932;-81
2022/11/18 12:44:26;;;;;;;;;;;;;;;;;;5042494;28;19928;-85
2022/11/18 12:46:52;;;;;;;;;;;;;;;;;;5044205;28;19921;-83
2022/11/18 12:49:18;;;;;;;;;;;;;;;;;;5045299;28;20015;-86
2022/11/18 12:51:45;;;;;;;;;;;;;;;;;;5044400;28;19921;-83
2022/11/18 12:54:11;;;;;;;;;;;;;;;;;;5046308;28;19921;-83
2022/11/18 12:56:38;;;;;;;;;;;;;;;;;;5046891;28;20217;-84
2022/11/18 12:59:03;;;;;;;;;;;;;;;;;;5040422;28;19932;-85
2022/11/18 13:01:29;;;;;;;;;;;;;;;;;;5041258;28;19921;-84
2022/11/18 13:03:55;;;;;;;;;;;;;;;;;;5039172;28;19928;-85
2022/11/18 13:06:21;;;;;;;;;;;;;;;;;;5039564;28;20011;-86
2022/11/18 13:08:47;;;;;;;;;;;;;;;;;;5035487;28;19927;-85
2022/11/18 13:19:27;;;;;;;;;;;;;;;;;;5039555;28;19921;-84
2022/11/18 13:24:38;;;;;;;;;;;;;;;;;;5039954;28;19928;-85
2022/11/18 13:27:04;;;;;;;;;;;;;;;;;;5041369;28;19977;-85
2022/11/18 13:29:29;;;;;;;;;;;;;;;;;;5041960;28;19935;-85
2022/11/18 13:31:55;;;;;;;;;;;;;;;;;;5045680;28;19928;-83
2022/11/18 13:34:21;;;;;;;;;;;;;;;;;;5034746;28;19921;-85
2022/11/18 13:36:47;;;;;;;;;;;;;;;;;;5039059;28;19948;-84
2022/11/18 13:39:13;;;;;;;;;;;;;;;;;;5055002;28;19921;-85
2022/11/18 13:41:39;;;;;;;;;;;;;;;;;;5039103;28;19927;-84
2022/11/18 13:44:05;;;;;;;;;;;;;;;;;;5038580;28;20384;-82
2022/11/18 13:46:31;;;;;;;;;;;;;;;;;;5038970;28;19999;-84
2022/11/18 13:48:57;;;;;;;;;;;;;;;;;;5039129;28;20219;-83
2022/11/18 13:51:23;;;;;;;;;;;;;;;;;;5037083;28;19928;-83
2022/11/18 13:53:49;;;;;;;;;;;;;;;;;;5030762;28;19929;-82
2022/11/18 13:56:15;;;;;;;;;;;;;;;;;;5035692;28;20363;-82
2022/11/18 13:58:41;;;;;;;;;;;;;;;;;;5027010;28;20290;-82
2022/11/18 14:01:07;;;;;;;;;;;;;;;;;;5051127;28;19928;-83
2022/11/18 14:03:33;;;;;;;;;;;;;;;;;;5051231;28;19991;-83
2022/11/18 14:05:59;;;;;;;;;;;;;;;;;;5044409;28;19960;-80
2022/11/18 14:08:25;;;;;;;;;;;;;;;;;;5046660;28;19921;-82
2022/11/18 14:10:51;;;;;;;;;;;;;;;;;;5045629;28;19928;-83
2022/11/18 14:13:17;;;;;;;;;;;;;;;;;;5046281;28;19980;-84
2022/11/18 14:15:43;;;;;;;;;;;;;;;;;;5043748;28;19986;-84
2022/11/18 14:18:09;;;;;;;;;;;;;;;;;;5038973;28;19928;-83
2022/11/18 14:20:35;;;;;;;;;;;;;;;;;;5031353;28;20286;-83
2022/11/18 14:23:01;;;;;;;;;;;;;;;;;;5037385;28;19911;-85
2022/11/18 14:25:27;;;;;;;;;;;;;;;;;;5026904;28;20003;-84
2022/11/18 14:27:53;;;;;;;;;;;;;;;;;;5030708;28;19924;-83
2022/11/18 14:30:19;;;;;;;;;;;;;;;;;;5037616;28;20430;-85
2022/11/18 14:32:45;;;;;;;;;;;;;;;;;;5035101;28;19921;-84
2022/11/18 14:35:11;;;;;;;;;;;;;;;;;;5042411;28;19921;-83
2022/11/18 14:37:37;;;;;;;;;;;;;;;;;;5016802;28;19921;-84
2022/11/18 14:40:02;;;;;;;;;;;;;;;;;;5038716;28;19921;-84
2022/11/18 14:42:28;;;;;;;;;;;;;;;;;;5024663;28;19925;-83
2022/11/18 14:44:54;;;;;;;;;;;;;;;;;;5044127;28;19921;-83
2022/11/18 14:47:20;;;;;;;;;;;;;;;;;;5039607;28;19967;-84
2022/11/18 14:49:46;;;;;;;;;;;;;;;;;;5043963;28;19927;-84
2022/11/18 14:52:12;;;;;;;;;;;;;;;;;;5043111;28;19928;-85
2022/11/18 14:54:38;;;;;;;;;;;;;;;;;;5045867;28;19924;-85
2022/11/18 14:57:04;;;;;;;;;;;;;;;;;;5043757;28;19935;-85
2022/11/18 14:59:30;;;;;;;;;;;;;;;;;;5022212;28;19929;-85
2022/11/18 15:01:57;;;;;;;;;;;;;;;;;;5031188;28;19925;-84
2022/11/18 15:04:24;;;;;;;;;;;;;;;;;;5053374;28;19909;-84
2022/11/18 15:06:49;;;;;;;;;;;;;;;;;;5053985;28;19928;-83
2022/11/18 15:09:15;;;;;;;;;;;;;;;;;;5056380;28;19949;-83
2022/11/18 15:11:41;;;;;;;;;;;;;;;;;;5052648;28;19970;-82
2022/11/18 15:14:08;;;;;;;;;;;;;;;;;;5039606;28;20421;-82
2022/11/18 15:16:34;;;;;;;;;;;;;;;;;;5034022;28;19979;-82
2022/11/18 15:18:59;;;;;;;;;;;;;;;;;;5052218;28;19924;-82
2022/11/18 15:21:25;;;;;;;;;;;;;;;;;;5017897;28;19935;-83
2022/11/18 15:23:51;;;;;;;;;;;;;;;;;;5033997;28;19931;-83
2022/11/18 15:26:17;;;;;;;;;;;;;;;;;;5035340;28;19928;-83
2022/11/18 15:28:44;;;;;;;;;;;;;;;;;;5034993;28;19928;-82
2022/11/18 15:31:10;;;;;;;;;;;;;;;;;;5032556;28;19921;-84
2022/11/18 15:33:35;;;;;;;;;;;;;;;;;;5035676;28;19928;-83
2022/11/18 15:36:01;;;;;;;;;;;;;;;;;;5036599;28;20287;-84
2022/11/18 15:38:27;;;;;;;;;;;;;;;;;;5033014;28;20351;-83
2022/11/18 15:40:53;;;;;;;;;;;;;;;;;;5031669;28;19944;-83
2022/11/18 15:43:19;;;;;;;;;;;;;;;;;;5034451;28;19932;-83
2022/11/18 15:45:45;;;;;;;;;;;;;;;;;;5036289;28;19927;-85
2022/11/18 15:48:11;;;;;;;;;;;;;;;;;;5037321;28;19928;-83
2022/11/18 15:50:38;;;;;;;;;;;;;;;;;;5030786;28;19925;-82
2022/11/18 15:53:04;;;;;;;;;;;;;;;;;;5035517;28;20351;-82
2022/11/18 15:55:30;;;;;;;;;;;;;;;;;;5037181;28;19935;-84
2022/11/18 15:57:57;;;;;;;;;;;;;;;;;;5049623;28;20007;-84
2022/11/18 16:00:23;;;;;;;;;;;;;;;;;;5024444;28;19917;-84
2022/11/18 16:02:49;;;;;;;;;;;;;;;;;;5027744;28;19971;-82
2022/11/18 16:05:15;;;;;;;;;;;;;;;;;;5032891;28;19978;-82
2022/11/18 16:07:40;;;;;;;;;;;;;;;;;;5045839;28;20018;-83
2022/11/18 16:12:51;;;;;;;;;;;;;;;;;;5039608;28;19927;-83
2022/11/18 16:18:01;;;;;;;;;;;;;;;;;;5038634;28;19972;-83
2022/11/18 16:20:28;;;;;;;;;;;;;;;;;;5040188;28;19928;-83
2022/11/18 16:22:53;;;;;;;;;;;;;;;;;;5039956;28;19921;-84
2022/11/18 16:25:19;;;;;;;;;;;;;;;;;;5034933;28;19944;-83
2022/11/18 16:27:45;;;;;;;;;;;;;;;;;;5040687;28;19921;-82
2022/11/18 16:31:38;;;;;;;;;;;;;;;;;;5031089;28;19927;-84
2022/11/18 16:32:57;;;;;;;;;;;;;;;;;;5039844;28;19925;-81
2022/11/18 16:35:23;;;;;;;;;;;;;;;;;;5039994;28;21617;-81
2022/11/18 16:37:49;;;;;;;;;;;;;;;;;;5034737;28;20001;-80
2022/11/18 16:40:15;;;;;;;;;;;;;;;;;;5038856;28;20402;-81
2022/11/18 16:42:41;;;;;;;;;;;;;;;;;;5037348;28;19921;-80
2022/11/18 16:45:07;;;;;;;;;;;;;;;;;;5043694;28;19928;-81
2022/11/18 16:47:32;;;;;;;;;;;;;;;;;;5040224;28;19936;-80
2022/11/18 16:49:58;;;;;;;;;;;;;;;;;;5050554;28;19924;-79
2022/11/18 16:52:24;;;;;;;;;;;;;;;;;;5050165;28;19921;-81
2022/11/18 16:54:51;;;;;;;;;;;;;;;;;;5045930;28;20375;-82
2022/11/18 16:57:18;;;;;;;;;;;;;;;;;;5041198;28;19928;-79
2022/11/18 16:59:43;;;;;;;;;;;;;;;;;;5039470;28;19921;-79
2022/11/18 17:02:09;;;;;;;;;;;;;;;;;;5037656;28;20015;-80
2022/11/18 17:04:37;;;;;;;;;;;;;;;;;;5039073;28;19920;-81
2022/11/18 17:07:03;;;;;;;;;;;;;;;;;;5039368;28;19921;-80
2022/11/18 17:09:29;;;;;;;;;;;;;;;;;;5030998;28;19970;-80
2022/11/18 17:11:55;;;;;;;;;;;;;;;;;;5039867;28;19921;-80
2022/11/18 17:14:21;;;;;;;;;;;;;;;;;;5039113;28;19925;-80
2022/11/18 17:16:47;;;;;;;;;;;;;;;;;;5034367;28;19930;-79